aviador You're here:

KFRG Decoded Metar

FARMINGDALE in NY, USA
Report Time2017-09-23 17:53:00
UTC Time2017-09-23 18:18:25
Flight Rules vfr VFR
Wind360° at 10 kt
W.Decomp.*RWY 01: 10.0 kt HW 0.7 kt RCW
RWY 32: 5.9 kt HW 8.1 kt RCW
Visibility9999 m
Phenomena:N/A
Clouds:N/A
Expected CloudBase > 4,400 ft AGL from Temp-Dew spread
CeilingNone
Temp28°C (ISA +13)
Dew Point17°C (51% RH)
Heat Index28.5°C
AAT26.7°C
QNH1016 hPa
Density Alt1,739 ft
Elevation69 ft
Report Wrong Elevation
Raw Report
METAR KFRG 231753Z 36010KT 10SM CLR 28/17 A3001 RMK AO2 SLP162 T02830172
10283 20211 58008=

Extra information for KFRG:More info

Metar Taf Metar & Taf Last 4 Metars F.Rules Stats Wind Profile Meteogram Temp Stats Airport Information Weather charts Add Link Nearby VenuesMetar ALERT Operation Metar Decoded Social comments

AIRNAV info for KFRG